Time;durP1;ratioP1;P1;durP2;ratioP2;P2;SDS_P1;SDS_P2;PMS_P1;PMS_P2;Temp;Humidity;BMP_temperature;BMP_pressure;BME280_temperature;BME280_humidity;BME280_pressure;Samples;Min_cycle;Max_cycle;Signal;HPM_P1;HPM_P2
2022/06/02 00:00:13;;;;;;;3.30;3.00;;;12.40;1.00;;;12.43;69.54;101042.19;5011435;28;20769;-73
2022/06/02 00:03:14;;;;;;;5.73;3.50;;;12.30;1.00;;;12.42;69.83;101051.38;5010011;28;20486;-71
2022/06/02 00:06:11;;;;;;;9.33;3.80;;;12.30;1.00;;;12.35;70.00;101058.66;5011394;28;20432;-72
2022/06/02 00:08:59;;;;;;;5.10;4.57;;;12.20;1.00;;;12.34;69.89;101059.75;5011376;28;20384;-72
2022/06/02 00:11:49;;;;;;;4.10;3.70;;;12.30;1.00;;;12.42;70.29;101067.66;5010861;28;20819;-72
2022/06/02 00:14:26;;;;;;;4.90;4.23;;;12.30;1.00;;;12.48;69.58;101069.53;5011416;28;20425;-73
2022/06/02 00:17:02;;;;;;;4.70;4.30;;;12.30;1.00;;;12.33;69.79;101062.66;5011394;28;20690;-72
2022/06/02 00:19:44;;;;;;;4.20;3.80;;;12.30;1.00;;;12.36;70.38;101068.47;5011813;28;20399;-73
2022/06/02 00:22:23;;;;;;;6.50;4.20;;;12.30;1.00;;;12.43;70.14;101077.47;5011413;28;20453;-71
2022/06/02 00:25:02;;;;;;;4.63;4.23;;;12.30;1.00;;;12.32;70.19;101072.66;5010154;28;20452;-72
2022/06/02 00:27:42;;;;;;;4.93;4.20;;;12.20;1.00;;;12.33;70.14;101074.34;5011343;28;20417;-72
2022/06/02 00:30:22;;;;;;;4.73;4.10;;;12.20;1.00;;;12.19;70.49;101067.25;5010526;28;20396;-71
2022/06/02 00:33:04;;;;;;;3.87;3.53;;;12.10;1.00;;;12.21;70.00;101073.28;5009978;28;20535;-72
2022/06/02 00:35:43;;;;;;;3.80;3.40;;;12.10;1.00;;;12.19;70.39;101078.09;5018389;28;20440;-71
2022/06/02 00:38:22;;;;;;;4.10;3.70;;;12.10;1.00;;;12.13;69.99;101076.22;5030982;28;20588;-72
2022/06/02 00:40:51;;;;;;;4.10;3.50;;;12.10;1.00;;;12.14;69.32;101072.47;5031192;28;20478;-70
2022/06/02 00:43:55;;;;;;;4.77;4.10;;;12.10;1.00;;;12.16;69.19;101083.91;5031275;28;20855;-72
2022/06/02 00:46:39;;;;;;;3.07;2.70;;;12.00;1.00;;;11.97;69.94;101073.88;5030812;28;20475;-70
2022/06/02 00:49:19;;;;;;;6.10;4.13;;;12.00;1.00;;;11.97;69.95;101073.88;5030286;28;20890;-72
2022/06/02 00:52:03;;;;;;;4.93;3.63;;;11.90;1.00;;;12.03;69.85;101075.78;5029381;28;20547;-72
2022/06/02 00:57:46;;;;;;;3.70;3.00;;;12.00;1.00;;;11.95;69.34;101086.84;4976640;28;22348;-71
2022/06/02 01:00:19;;;;;;;3.53;3.10;;;11.90;1.00;;;11.97;69.29;101095.59;5031158;28;20428;-73
2022/06/02 01:02:56;;;;;;;3.17;2.87;;;11.90;1.00;;;11.92;69.70;101098.09;5029354;28;20452;-71
2022/06/02 01:05:56;;;;;;;5.73;4.03;;;11.90;1.00;;;11.98;69.40;101097.25;5030775;28;20417;-71
2022/06/02 01:09:02;;;;;;;4.03;3.40;;;11.90;1.00;;;11.83;69.95;101096.59;5029350;28;20432;-71
2022/06/02 01:11:50;;;;;;;4.03;3.37;;;11.80;1.00;;;11.76;70.23;101099.31;5030677;28;20446;-72
2022/06/02 01:14:38;;;;;;;5.97;2.93;;;11.80;1.00;;;11.56;71.19;101099.22;5030269;28;20424;-72
2022/06/02 01:17:20;;;;;;;2.60;2.40;;;11.70;1.00;;;11.63;71.30;101107.38;5029242;28;20432;-72
2022/06/02 01:20:30;;;;;;;3.27;2.80;;;11.60;1.00;;;11.48;71.45;101101.25;5030190;28;20606;-72
2022/06/02 01:24:08;;;;;;;5.37;3.70;;;11.50;1.00;;;11.48;71.43;101101.25;5016169;28;20475;-73
2022/06/02 01:27:42;;;;;;;3.20;2.90;;;11.50;1.00;;;11.32;72.06;101113.31;4952196;28;20435;-73
2022/06/02 01:30:47;;;;;;;4.13;3.03;;;11.40;6.90;;;11.25;72.44;101112.44;4966391;28;20451;-72
2022/06/02 01:33:28;;;;;;;4.03;3.73;;;11.30;12.40;;;11.24;72.65;101110.75;5030243;28;20443;-73
2022/06/02 01:36:11;;;;;;;4.80;3.80;;;11.30;16.90;;;11.21;72.93;101114.72;5031687;28;20436;-72
2022/06/02 01:38:54;;;;;;;4.07;3.77;;;11.30;22.30;;;11.17;73.22;101118.88;5033054;28;20526;-73
2022/06/02 01:41:38;;;;;;;4.28;3.85;;;11.20;27.50;;;11.27;73.14;101115.78;5032537;28;20447;-71
2022/06/02 01:44:20;;;;;;;4.57;3.60;;;11.20;30.40;;;11.08;73.60;101121.94;5032962;28;20229;-71
2022/06/02 01:47:00;;;;;;;4.33;3.90;;;11.10;36.30;;;10.85;74.57;101116.78;5031865;28;20434;-73
2022/06/02 01:49:50;;;;;;;8.13;3.07;;;11.00;54.00;;;10.74;75.12;101120.91;5033220;28;20818;-71
2022/06/02 01:52:43;;;;;;;4.25;3.90;;;10.90;82.10;;;10.82;74.80;101118.03;5032522;28;20968;-72
2022/06/02 01:55:53;;;;;;;3.97;3.57;;;10.90;91.90;;;10.68;75.39;101118.13;5032490;28;20189;-70
2022/06/02 01:58:55;;;;;;;4.40;3.30;;;10.80;95.80;;;10.56;76.01;101122.41;5033105;28;20778;-70
2022/06/02 02:01:41;;;;;;;3.83;3.20;;;10.70;99.90;;;10.51;76.29;101123.00;5033281;28;20530;-70
2022/06/02 02:04:33;;;;;;;4.82;4.38;;;10.60;99.90;;;10.48;76.84;101131.50;5034265;28;20919;-70
2022/06/02 02:07:13;;;;;;;5.50;4.25;;;10.60;99.90;;;10.51;76.59;101135.69;5033038;28;20185;-70
2022/06/02 02:09:59;;;;;;;4.63;3.65;;;10.60;99.90;;;10.46;77.01;101134.41;5034689;28;20232;-70
2022/06/02 02:12:53;;;;;;;3.72;3.42;;;10.50;99.90;;;10.64;76.37;101144.75;5034988;28;20410;-72
2022/06/02 02:15:43;;;;;;;4.30;3.90;;;10.60;99.90;;;10.77;75.62;101138.59;5034576;28;20201;-70
2022/06/02 02:18:47;;;;;;;4.68;3.60;;;10.70;99.90;;;10.64;76.17;101144.75;5035295;28;20193;-71
2022/06/02 02:21:28;;;;;;;4.97;4.30;;;10.60;99.90;;;10.68;76.15;101151.47;5038181;28;20225;-72
2022/06/02 02:24:24;;;;;;;3.83;3.28;;;10.60;99.90;;;10.65;75.91;101146.41;5039112;28;20243;-72
2022/06/02 02:27:01;;;;;;;4.57;3.80;;;10.60;99.90;;;10.72;75.38;101147.31;5041541;28;20213;-70
2022/06/02 02:29:44;;;;;;;3.80;3.30;;;10.70;99.90;;;10.63;75.97;101161.19;5039960;28;20181;-72
2022/06/02 02:32:31;;;;;;;3.30;3.00;;;10.60;99.90;;;10.55;75.85;101153.22;5038953;28;20638;-72
2022/06/02 02:35:14;;;;;;;4.50;3.53;;;10.60;99.90;;;10.54;75.88;101159.66;5038668;28;20240;-71
2022/06/02 02:37:52;;;;;;;3.42;3.13;;;10.50;99.90;;;10.53;75.71;101149.88;5038294;28;20189;-70
2022/06/02 02:40:31;;;;;;;6.05;4.38;;;10.50;99.90;;;10.51;75.68;101157.31;5041942;28;20247;-70
2022/06/02 02:43:07;;;;;;;6.05;4.22;;;10.50;99.90;;;10.31;76.51;101160.69;5037635;28;20200;-70
2022/06/02 02:45:47;;;;;;;4.70;2.83;;;10.40;99.90;;;10.42;75.97;101157.47;5039853;28;20212;-71
2022/06/02 02:48:37;;;;;;;3.97;2.60;;;10.40;99.90;;;10.30;76.41;101169.88;5039072;28;20454;-72
2022/06/02 02:51:17;;;;;;;3.72;3.22;;;10.40;99.90;;;10.31;76.65;101168.00;5040904;28;20209;-70
2022/06/02 02:53:58;;;;;;;3.70;3.38;;;10.40;99.90;;;10.24;76.47;101169.78;5042672;28;20197;-72
2022/06/02 02:56:37;;;;;;;3.80;2.53;;;10.30;99.90;;;10.15;77.01;101177.16;5042691;28;20259;-71
2022/06/02 02:59:20;;;;;;;3.38;3.05;;;10.20;99.90;;;10.06;77.29;101180.19;5040394;28;20639;-71
2022/06/02 03:02:17;;;;;;;3.42;3.10;;;10.20;99.90;;;10.01;77.72;101176.19;5038664;28;20328;-70
2022/06/02 03:05:06;;;;;;;4.90;4.40;;;10.10;99.90;;;10.02;77.46;101175.16;5033313;28;20185;-72
2022/06/02 03:07:35;;;;;;;4.60;3.03;;;10.10;99.90;;;10.15;77.15;101173.63;5032626;28;20182;-73
2022/06/02 03:10:16;;;;;;;3.80;3.50;;;10.10;99.90;;;10.26;76.92;101178.56;5031770;28;20194;-71
2022/06/02 03:13:13;;;;;;;3.55;3.10;;;10.20;99.90;;;10.34;76.04;101181.97;5032716;28;20240;-71
2022/06/02 03:15:49;;;;;;;3.10;2.58;;;10.30;99.90;;;10.32;75.98;101185.88;5033355;28;20213;-72
2022/06/02 03:18:59;;;;;;;3.13;2.83;;;10.30;99.90;;;10.30;76.13;101188.81;5032966;28;20174;-72
2022/06/02 03:21:36;;;;;;;3.83;3.30;;;10.30;99.90;;;10.42;75.73;101199.94;5032872;28;20232;-71
2022/06/02 03:24:40;;;;;;;3.10;2.80;;;10.30;99.90;;;10.40;75.63;101200.13;5032640;28;20185;-72
2022/06/02 03:27:27;;;;;;;2.85;2.65;;;10.30;99.90;;;10.50;75.29;101199.81;5032601;28;20177;-72
2022/06/02 03:30:13;;;;;;;6.03;2.67;;;10.40;99.90;;;10.45;75.33;101202.25;5031801;28;20260;-71
2022/06/02 03:33:08;;;;;;;4.13;3.15;;;10.40;99.90;;;10.56;75.63;101211.69;5031921;28;20478;-72
2022/06/02 03:35:58;;;;;;;4.00;3.10;;;10.40;99.90;;;10.83;74.83;101217.19;5032150;28;20193;-70
2022/06/02 03:38:53;;;;;;;3.92;2.97;;;10.50;99.90;;;11.70;72.05;101212.09;5032503;28;20180;-71
2022/06/02 03:41:46;;;;;;;2.97;2.50;;;10.90;94.10;;;12.34;68.82;101210.88;5030819;28;20267;-72
2022/06/02 03:44:32;;;;;;;3.90;3.50;;;11.40;34.70;;;12.88;67.16;101224.25;5032038;28;20544;-72
2022/06/02 03:47:24;;;;;;;5.60;3.17;;;11.80;13.10;;;12.72;66.86;101214.66;5032005;28;20709;-71
2022/06/02 03:50:22;;;;;;;4.67;3.80;;;12.00;2.40;;;12.11;68.68;101225.63;5032258;28;20533;-70
2022/06/02 03:53:22;;;;;;;3.67;3.37;;;11.80;1.00;;;11.75;70.73;101228.63;5031870;28;20613;-70
2022/06/02 03:56:07;;;;;;;3.07;2.77;;;11.60;11.10;;;11.37;71.95;101232.78;5032133;28;20598;-72
2022/06/02 03:59:01;;;;;;;4.53;3.10;;;11.30;15.50;;;11.38;72.26;101236.28;5032242;28;20435;-71
2022/06/02 04:01:40;;;;;;;3.40;2.63;;;11.20;21.80;;;11.20;72.57;101237.66;5032289;28;20526;-70
2022/06/02 04:04:23;;;;;;;3.20;2.83;;;11.20;23.50;;;11.14;72.54;101240.28;5032193;28;20431;-71
2022/06/02 04:07:15;;;;;;;3.63;2.90;;;11.10;25.50;;;11.10;72.82;101244.44;5032175;28;20423;-70
2022/06/02 04:10:00;;;;;;;3.22;2.80;;;11.00;27.90;;;11.05;73.30;101244.19;5032636;28;20420;-71
2022/06/02 04:16:36;;;;;;;4.20;2.90;;;11.00;36.40;;;11.11;73.16;101249.66;5032082;28;20808;-72
2022/06/02 04:22:36;;;;;;;4.07;2.60;;;11.10;41.40;;;11.31;72.60;101268.78;5031430;28;20441;-70
2022/06/02 04:25:29;;;;;;;3.60;3.10;;;11.10;34.60;;;11.55;72.02;101271.03;5031264;28;20419;-70
2022/06/02 04:28:10;;;;;;;4.03;3.63;;;11.30;32.80;;;11.47;72.08;101263.06;5032031;28;20401;-71
2022/06/02 04:30:57;;;;;;;5.57;3.60;;;11.30;25.90;;;11.72;71.36;101256.13;5032547;28;20528;-73
2022/06/02 04:33:34;;;;;;;3.43;3.13;;;11.50;26.50;;;12.02;70.84;101263.97;5031091;28;20539;-72
2022/06/02 04:36:17;;;;;;;3.80;3.40;;;11.60;23.10;;;13.63;65.47;101264.56;5032222;28;20439;-71
2022/06/02 04:38:58;;;;;;;5.50;5.00;;;12.20;9.90;;;13.44;65.20;101274.44;5030461;28;20444;-72
2022/06/02 04:41:38;;;;;;;4.10;3.70;;;12.60;1.00;;;12.85;67.53;101279.00;5030403;28;20801;-70
2022/06/02 04:44:22;;;;;;;3.67;3.37;;;12.50;1.00;;;12.44;68.40;101266.41;5031925;28;20851;-72
2022/06/02 04:47:08;;;;;;;4.43;3.80;;;12.30;1.00;;;12.33;68.70;101272.44;5032217;28;20456;-71
2022/06/02 04:49:48;;;;;;;6.27;4.37;;;12.20;1.00;;;12.46;68.84;101272.47;5031183;28;20804;-71
2022/06/02 04:52:32;;;;;;;6.20;4.67;;;12.20;1.00;;;12.35;69.05;101278.50;5032214;28;20449;-73
2022/06/02 04:55:19;;;;;;;5.30;3.43;;;12.10;1.00;;;12.34;68.89;101276.84;5032163;28;20428;-72
2022/06/02 04:57:56;;;;;;;5.73;4.60;;;12.10;1.00;;;12.25;69.14;101280.75;5031310;28;20469;-70
2022/06/02 05:00:38;;;;;;;4.70;4.27;;;12.00;1.00;;;12.46;68.99;101291.47;5032765;28;20536;-72
2022/06/02 05:03:16;;;;;;;3.47;3.17;;;12.10;1.00;;;12.49;68.95;101288.34;5032274;28;20776;-70
2022/06/02 05:06:01;;;;;;;7.27;4.20;;;12.20;1.00;;;12.58;68.74;101289.84;5034282;28;20431;-70
2022/06/02 05:08:53;;;;;;;6.30;4.47;;;12.20;1.00;;;12.46;68.78;101296.91;5020130;28;20416;-73
2022/06/02 05:11:40;;;;;;;3.80;3.40;;;12.20;1.00;;;12.66;68.74;101296.94;5030655;28;20527;-70
2022/06/02 05:14:27;;;;;;;6.23;3.80;;;12.20;1.00;;;12.51;68.77;101288.13;5030323;28;20444;-73
2022/06/02 05:17:12;;;;;;;5.40;4.90;;;12.20;1.00;;;12.50;68.67;101300.88;5038163;28;20432;-71
2022/06/02 05:20:13;;;;;;;6.13;4.63;;;12.30;1.00;;;12.58;68.84;101297.16;5032049;28;20468;-74
2022/06/02 05:23:11;;;;;;;6.80;4.83;;;12.20;1.00;;;12.94;67.88;101307.63;5032048;28;20454;-71
2022/06/02 05:26:23;;;;;;;6.93;5.23;;;12.50;1.00;;;13.49;66.13;101309.97;5033683;28;20430;-74
2022/06/02 05:29:38;;;;;;;5.57;4.90;;;12.70;1.00;;;14.56;63.01;101322.19;5010037;28;20429;-71
2022/06/02 05:32:31;;;;;;;6.73;4.80;;;13.20;1.00;;;15.90;58.55;101319.84;5010776;28;20437;-72
2022/06/02 05:36:04;;;;;;;5.83;4.03;;;14.00;1.00;;;14.96;60.87;101320.88;5010187;28;20506;-71
2022/06/02 05:39:13;;;;;;;5.57;4.63;;;14.20;1.00;;;14.58;62.27;101325.53;4965022;28;20430;-72
2022/06/02 05:42:01;;;;;;;5.67;4.50;;;14.10;1.00;;;14.05;63.84;101331.16;4949554;29;21005;-71
2022/06/02 05:44:58;;;;;;;4.80;4.03;;;13.80;1.00;;;13.71;65.31;101331.47;5013862;28;20770;-72
2022/06/02 05:47:49;;;;;;;4.53;4.13;;;13.50;1.00;;;13.93;65.38;101333.72;5030766;28;21023;-73
2022/06/02 05:50:37;;;;;;;6.30;5.33;;;13.50;1.00;;;13.98;64.98;101334.97;5029794;28;20802;-73
2022/06/02 05:53:24;;;;;;;5.50;4.73;;;13.70;1.00;;;13.81;65.64;101346.31;5032781;28;20489;-71
2022/06/02 05:56:07;;;;;;;6.97;6.00;;;13.60;1.00;;;13.99;64.86;101348.34;5045113;28;20435;-73
2022/06/02 05:59:20;;;;;;;6.83;5.30;;;13.60;1.00;;;13.70;65.71;101349.66;5031057;28;20429;-72
2022/06/02 06:02:13;;;;;;;6.07;5.30;;;13.50;1.00;;;13.83;65.31;101363.25;5034745;28;20443;-71
2022/06/02 06:05:08;;;;;;;9.70;5.20;;;13.60;1.00;;;14.08;64.79;101362.56;5036590;23;20811;-70
2022/06/02 06:08:15;;;;;;;6.10;5.50;;;13.70;1.00;;;13.53;66.00;101363.91;5010037;28;20932;-71
2022/06/02 06:11:02;;;;;;;7.30;6.10;;;13.50;1.00;;;13.56;66.13;101360.75;5015216;28;20429;-71
2022/06/02 06:14:07;;;;;;;5.20;4.70;;;13.40;1.00;;;13.72;66.09;101363.06;5015483;28;20460;-71
2022/06/02 06:16:40;;;;;;;6.60;5.90;;;13.30;1.00;;;13.95;65.22;101368.88;4995480;28;20509;-71
2022/06/02 06:20:07;;;;;;;8.97;6.53;;;13.60;1.00;;;14.21;64.08;101363.38;4996312;28;20413;-71
2022/06/02 06:23:16;;;;;;;7.33;6.10;;;13.70;1.00;;;14.38;64.12;101379.28;4995074;28;20420;-72
2022/06/02 06:26:06;;;;;;;14.83;6.13;;;13.80;1.00;;;14.34;64.27;101374.19;4993643;28;20434;-71
2022/06/02 06:28:45;;;;;;;6.43;5.80;;;13.90;1.00;;;14.59;63.13;101373.50;4993295;28;20457;-72
2022/06/02 06:31:25;;;;;;;9.90;7.60;;;14.00;1.00;;;14.75;62.45;101375.72;5010310;28;20511;-71
2022/06/02 06:34:16;;;;;;;8.63;6.63;;;14.20;1.00;;;14.16;64.65;101370.50;5015596;28;20919;-71
2022/06/02 06:37:08;;;;;;;6.17;5.37;;;14.00;1.00;;;14.63;63.92;101378.28;5012618;28;20428;-71
2022/06/02 06:39:59;;;;;;;7.97;6.10;;;14.10;1.00;;;14.67;62.75;101384.13;5015827;28;20436;-71
2022/06/02 06:42:57;;;;;;;8.00;6.00;;;14.40;1.00;;;14.58;63.76;101382.72;5011251;28;20500;-70
2022/06/02 06:45:36;;;;;;;8.20;6.90;;;14.20;1.00;;;14.64;62.57;101384.59;4995543;28;20806;-71
2022/06/02 06:48:18;;;;;;;6.77;5.80;;;14.30;1.00;;;14.78;62.50;101392.47;4994798;28;20410;-73
2022/06/02 06:50:57;;;;;;;8.53;7.73;;;14.40;1.00;;;14.95;62.52;101391.97;4994325;28;20477;-71
2022/06/02 06:53:44;;;;;;;7.43;6.03;;;14.60;1.00;;;15.20;61.34;101407.31;5009385;28;20437;-71
2022/06/02 06:56:25;;;;;;;6.87;6.27;;;14.80;1.00;;;15.42;61.21;101404.22;5009358;28;20907;-71
2022/06/02 06:59:14;;;;;;;8.30;6.33;;;14.90;1.00;;;15.74;59.89;101405.03;5014689;28;20407;-71
2022/06/02 07:01:52;;;;;;;7.53;6.83;;;15.30;1.00;;;15.90;59.07;101408.03;5029126;28;20454;-70
2022/06/02 07:04:39;;;;;;;7.17;6.20;;;15.50;1.00;;;16.39;58.32;101401.63;5018701;28;20458;-71
2022/06/02 07:07:19;;;;;;;6.43;5.83;;;15.70;1.00;;;17.00;56.60;101408.00;5018699;28;20447;-71
2022/06/02 07:10:03;;;;;;;5.60;5.10;;;16.30;1.00;;;16.46;57.94;101412.44;5028200;28;20437;-71
2022/06/02 07:12:54;;;;;;;8.00;7.30;;;16.20;1.00;;;16.57;56.89;101414.41;5013301;28;20882;-70
2022/06/02 07:15:40;;;;;;;9.37;5.60;;;16.20;1.00;;;17.27;56.14;101414.75;5013580;28;20481;-71
2022/06/02 07:18:24;;;;;;;6.73;6.13;;;16.60;1.00;;;17.39;54.92;101418.34;5012790;28;20485;-71
2022/06/02 07:21:16;;;;;;;6.20;5.60;;;16.80;1.00;;;17.23;55.83;101413.56;5014370;28;20472;-71
2022/06/02 07:24:04;;;;;;;10.43;6.40;;;16.70;1.00;;;15.96;57.74;101423.50;5036111;28;20404;-71
2022/06/02 07:26:52;;;;;;;7.57;6.87;;;16.20;1.00;;;15.82;59.00;101416.50;5033026;28;20399;-72
2022/06/02 07:29:40;;;;;;;6.00;5.50;;;15.80;1.00;;;16.04;59.22;101414.19;5031818;28;20439;-70
2022/06/02 07:32:49;;;;;;;18.57;5.90;;;15.70;1.00;;;16.20;59.20;101426.41;5032678;28;20458;-73
2022/06/02 07:36:13;;;;;;;5.63;5.13;;;15.90;1.00;;;16.74;57.74;101429.19;5033042;28;20395;-70
2022/06/02 07:39:17;;;;;;;6.17;5.57;;;16.10;1.00;;;15.77;59.11;101430.00;5051460;28;20936;-71
2022/06/02 07:42:10;;;;;;;7.43;6.03;;;15.80;1.00;;;15.47;60.68;101427.06;5014226;28;20500;-72
2022/06/02 07:45:12;;;;;;;6.80;6.10;;;15.60;1.00;;;15.66;60.10;101430.72;5014265;28;20449;-71
2022/06/02 07:48:28;;;;;;;6.17;5.13;;;15.60;1.00;;;16.11;57.90;101442.28;5019362;28;20407;-72
2022/06/02 07:51:12;;;;;;;5.20;4.70;;;15.90;1.00;;;15.50;58.90;101445.69;4995737;28;20460;-71
2022/06/02 07:54:20;;;;;;;8.13;5.30;;;15.60;1.00;;;15.72;58.29;101432.56;5003160;28;20788;-72
2022/06/02 07:57:09;;;;;;;4.80;4.30;;;15.60;1.00;;;16.08;57.15;101442.69;5015506;28;20467;-72
2022/06/02 08:00:16;;;;;;;4.23;3.83;;;15.90;1.00;;;16.43;56.89;101446.53;5016060;28;20419;-72
2022/06/02 08:03:22;;;;;;;4.70;3.73;;;16.10;1.00;;;16.70;54.12;101446.28;4984310;28;20570;-71
2022/06/02 08:06:03;;;;;;;9.70;4.20;;;16.40;1.00;;;16.22;54.10;101454.31;5028157;28;20778;-70
2022/06/02 08:09:19;;;;;;;4.00;3.70;;;16.20;1.00;;;15.97;55.19;101452.50;5005388;28;20964;-70
2022/06/02 08:12:01;;;;;;;8.13;4.00;;;16.00;1.00;;;16.12;54.42;101467.69;5017219;28;20423;-69
2022/06/02 08:14:41;;;;;;;4.27;3.07;;;16.00;1.00;;;15.78;54.01;101458.13;5005728;28;20503;-70
2022/06/02 08:17:21;;;;;;;5.47;3.20;;;15.80;1.00;;;16.07;53.56;101463.69;5011480;28;20439;-71
2022/06/02 08:20:08;;;;;;;5.20;3.47;;;15.90;1.00;;;15.59;51.43;101466.22;5008914;28;20439;-69
2022/06/02 08:23:06;;;;;;;3.20;3.00;;;15.80;1.00;;;15.84;52.66;101463.50;5020854;28;20465;-70
2022/06/02 08:25:49;;;;;;;3.53;2.60;;;15.70;1.00;;;16.31;52.53;101470.22;5006008;28;20406;-70
2022/06/02 08:28:55;;;;;;;3.27;2.97;;;16.10;1.00;;;16.00;51.82;101471.13;5004674;28;20430;-69
2022/06/02 08:32:04;;;;;;;2.23;2.03;;;16.10;1.00;;;15.72;52.35;101476.22;5013669;28;20449;-68
2022/06/02 08:34:50;;;;;;;3.60;2.40;;;15.80;1.00;;;15.59;52.86;101476.28;5010896;28;20479;-71
2022/06/02 08:37:37;;;;;;;5.20;3.27;;;15.60;1.00;;;15.64;53.58;101479.19;5022923;28;20447;-71
2022/06/02 08:45:07;;;;;;;7.07;2.47;;;15.90;1.00;;;17.29;50.00;101483.72;5007029;28;20797;-70
2022/06/02 08:48:16;;;;;;;2.30;2.10;;;16.60;1.00;;;17.69;48.66;101487.59;5003363;28;20958;-68
2022/06/02 08:51:47;;;;;;;4.40;3.43;;;17.20;1.00;;;17.89;48.57;101487.25;5019830;28;20434;-71
2022/06/02 08:55:01;;;;;;;3.10;2.63;;;17.50;1.00;;;18.54;46.55;101482.50;5007373;28;20431;-72
2022/06/02 08:58:42;;;;;;;2.87;2.43;;;18.10;1.00;;;18.91;45.00;101482.22;5005715;28;20411;-70
2022/06/02 09:01:38;;;;;;;2.70;2.50;;;18.50;1.00;;;18.35;46.14;101489.16;5004149;28;20548;-70
2022/06/02 09:04:58;;;;;;;2.80;2.47;;;18.10;1.00;;;18.22;44.80;101490.25;5005014;28;20985;-70
2022/06/02 09:08:12;;;;;;;1.87;1.63;;;18.00;1.00;;;18.23;44.62;101486.47;5006624;28;20451;-70
2022/06/02 09:11:28;;;;;;;3.50;1.80;;;18.00;1.00;;;18.41;44.32;101490.13;4987995;28;20420;-70
2022/06/02 09:14:37;;;;;;;3.30;1.73;;;18.00;1.00;;;18.72;44.04;101494.41;4987910;28;20443;-70
2022/06/02 09:17:29;;;;;;;3.43;2.57;;;18.20;1.00;;;18.81;43.17;101487.47;5005889;28;20445;-70
2022/06/02 09:20:20;;;;;;;1.80;1.47;;;18.50;1.00;;;18.69;43.35;101486.69;5006386;28;20448;-70
2022/06/02 09:23:04;;;;;;;2.53;1.60;;;18.60;1.00;;;19.48;42.58;101481.16;5004673;28;20470;-70
2022/06/02 09:25:56;;;;;;;2.30;1.77;;;19.00;1.00;;;20.15;42.11;101483.94;5007304;28;20395;-69
2022/06/02 09:28:49;;;;;;;2.17;1.67;;;19.60;1.00;;;20.11;40.72;101487.44;5004856;28;20434;-69
2022/06/02 09:31:55;;;;;;;3.27;1.80;;;19.70;1.00;;;18.87;43.33;101494.75;5005410;28;20465;-70
2022/06/02 09:35:06;;;;;;;6.13;2.73;;;19.10;1.00;;;18.97;44.05;101498.53;5006219;28;20786;-68
2022/06/02 09:38:21;;;;;;;4.97;3.10;;;18.70;1.00;;;18.72;43.39;101502.66;5007264;28;20979;-70
2022/06/02 09:40:57;;;;;;;3.13;2.33;;;18.50;1.00;;;18.64;43.76;101492.88;5008817;28;20537;-70
2022/06/02 09:44:01;;;;;;;3.03;2.30;;;18.40;1.00;;;19.35;42.37;101492.41;5006395;28;20439;-70
2022/06/02 09:47:16;;;;;;;2.10;1.87;;;18.80;1.00;;;19.21;41.70;101496.53;5006684;28;20443;-70
2022/06/02 09:50:37;;;;;;;7.50;2.73;;;19.10;1.00;;;19.10;42.13;101502.91;5020547;28;20443;-69
2022/06/02 09:53:48;;;;;;;2.17;1.93;;;18.90;1.00;;;18.08;43.01;101499.78;4994268;28;20439;-69
2022/06/02 09:56:46;;;;;;;2.17;1.97;;;18.50;1.00;;;17.52;44.42;101504.88;5005501;28;20493;-69
2022/06/02 09:59:38;;;;;;;2.67;2.47;;;17.80;1.00;;;18.13;42.92;101507.28;5007650;28;20507;-70
2022/06/02 10:02:28;;;;;;;1.50;1.20;;;17.90;1.00;;;18.02;43.32;101510.84;5003999;28;20555;-70
2022/06/02 10:05:19;;;;;;;4.83;1.40;;;17.90;1.00;;;18.45;41.24;101499.53;5006578;28;20775;-70
2022/06/02 10:08:13;;;;;;;2.60;2.17;;;18.20;1.00;;;18.81;40.18;101499.28;5005982;28;20412;-69
2022/06/02 10:11:11;;;;;;;4.03;2.20;;;18.40;1.00;;;19.78;40.34;101500.09;5021900;28;20473;-70
2022/06/02 10:14:27;;;;;;;3.37;2.07;;;19.10;1.00;;;20.39;38.93;101512.91;5014403;28;20433;-70
2022/06/02 10:17:33;;;;;;;4.87;3.03;;;19.80;1.00;;;20.41;39.96;101509.09;5005100;28;20448;-69
2022/06/02 10:20:45;;;;;;;3.10;1.73;;;20.00;1.00;;;20.19;39.86;101506.22;5006174;28;20417;-70
2022/06/02 10:23:49;;;;;;;2.40;1.80;;;20.00;1.00;;;20.71;39.55;101504.88;5005766;28;20489;-69
2022/06/02 10:26:38;;;;;;;1.60;1.40;;;20.20;1.00;;;20.62;38.09;101506.34;4993804;28;20559;-68
2022/06/02 10:30:08;;;;;;;3.83;3.03;;;20.50;1.00;;;19.30;40.41;101513.44;5005939;28;20932;-70
2022/06/02 10:33:35;;;;;;;3.83;2.07;;;19.90;1.00;;;18.91;42.61;101526.09;5005577;28;20780;-69
2022/06/02 10:36:54;;;;;;;2.60;2.30;;;19.00;1.00;;;17.99;44.70;101514.91;5007062;28;20499;-69
2022/06/02 10:40:05;;;;;;;4.27;2.67;;;18.20;1.00;;;18.26;44.56;101520.75;5003904;28;20427;-69
2022/06/02 10:43:22;;;;;;;3.17;2.23;;;18.20;1.00;;;18.55;42.24;101518.97;5003474;28;20841;-70
2022/06/02 10:46:47;;;;;;;2.23;1.50;;;18.30;1.00;;;18.56;41.50;101517.91;4994629;28;20441;-71
2022/06/02 10:49:30;;;;;;;2.33;1.40;;;18.50;1.00;;;18.26;41.61;101515.25;5006665;28;20433;-70
2022/06/02 10:52:46;;;;;;;3.50;2.03;;;18.30;1.00;;;18.82;40.71;101517.41;5009025;28;20538;-69
2022/06/02 10:56:08;;;;;;;2.30;2.10;;;18.50;1.00;;;18.89;41.50;101531.81;4994618;28;20523;-69
2022/06/02 10:59:28;;;;;;;1.67;1.57;;;18.50;1.00;;;18.44;41.00;101523.38;5012834;28;20438;-69
2022/06/02 11:02:43;;;;;;;3.57;2.30;;;18.40;1.00;;;18.12;41.98;101538.47;5006527;28;20431;-69
2022/06/02 11:06:15;;;;;;;2.53;1.47;;;18.30;1.00;;;18.40;42.15;101530.41;5005940;28;20543;-70
2022/06/02 11:09:30;;;;;;;1.60;1.50;;;18.10;1.00;;;19.57;41.48;101524.69;5012737;28;20508;-70
2022/06/02 11:12:54;;;;;;;2.17;1.97;;;18.90;1.00;;;19.61;39.19;101526.69;5007501;28;20523;-70
2022/06/02 11:16:09;;;;;;;1.77;1.67;;;19.40;1.00;;;19.90;37.86;101531.06;5001749;28;21021;-69
2022/06/02 11:19:35;;;;;;;2.90;1.70;;;19.70;1.00;;;20.75;38.45;101527.19;5009953;28;20432;-72
2022/06/02 11:22:58;;;;;;;1.67;1.27;;;20.10;1.00;;;21.54;35.89;101524.88;4996305;28;20468;-70
2022/06/02 11:26:41;;;;;;;2.87;1.43;;;21.00;1.00;;;20.79;37.20;101533.84;4989252;28;20468;-71
2022/06/02 11:30:10;;;;;;;2.17;1.20;;;20.60;1.00;;;21.44;36.11;101531.09;5013293;28;20467;-69
2022/06/02 11:33:35;;;;;;;1.50;1.17;;;20.80;1.00;;;21.50;35.09;101518.19;5017813;28;20506;-70
2022/06/02 11:37:01;;;;;;;2.67;1.50;;;21.00;1.00;;;20.80;35.55;101530.84;4995652;28;20455;-70
2022/06/02 11:40:23;;;;;;;1.57;1.10;;;21.10;1.00;;;20.49;36.12;101522.38;5009347;28;20419;-71
2022/06/02 11:43:13;;;;;;;1.77;1.10;;;20.50;1.00;;;20.83;36.49;101526.72;5024214;28;20481;-71
2022/06/02 11:46:39;;;;;;;1.80;1.10;;;20.50;1.00;;;21.17;36.17;101519.22;5005507;28;20425;-71
2022/06/02 11:49:57;;;;;;;1.50;1.00;;;20.60;1.00;;;21.13;35.94;101524.41;5002178;28;21056;-69
2022/06/02 11:53:22;;;;;;;1.80;1.50;;;20.80;1.00;;;19.68;36.97;101526.53;4993891;28;21006;-70
2022/06/02 11:55:59;;;;;;;1.70;1.37;;;20.10;1.00;;;20.49;36.37;101522.38;5017846;28;20448;-70
2022/06/02 11:59:39;;;;;;;1.37;1.00;;;20.20;1.00;;;21.01;36.53;101509.91;5011848;28;20400;-69
2022/06/02 12:03:00;;;;;;;2.67;1.90;;;20.50;1.00;;;21.16;35.98;101512.88;4970134;28;20441;-69
2022/06/02 12:06:08;;;;;;;1.67;1.03;;;20.80;1.00;;;21.81;34.44;101509.16;5017492;22;20515;-70
2022/06/02 12:09:13;;;;;;;5.30;1.40;;;21.30;1.00;;;21.11;34.16;101514.69;5024267;28;20440;-70
2022/06/02 12:12:09;;;;;;;2.23;1.53;;;21.00;1.00;;;19.81;37.24;101526.22;5028767;28;20578;-70
2022/06/02 12:15:23;;;;;;;2.30;1.27;;;20.10;1.00;;;20.12;37.75;101522.91;5019847;28;20774;-70
2022/06/02 12:18:20;;;;;;;1.57;1.10;;;19.90;1.00;;;19.87;36.90;101530.72;5023371;28;20419;-69
2022/06/02 12:21:52;;;;;;;1.97;1.00;;;19.80;1.00;;;19.57;37.56;101531.00;5038021;28;20474;-68
2022/06/02 12:24:46;;;;;;;1.40;1.10;;;19.40;1.00;;;20.47;35.70;101527.34;5041568;28;20450;-69
2022/06/02 12:27:57;;;;;;;1.50;1.20;;;19.90;1.00;;;19.71;35.08;101526.88;5021702;28;20452;-69
2022/06/02 12:30:55;;;;;;;5.67;1.90;;;19.70;1.00;;;19.81;36.08;101537.19;5021859;28;20418;-71